Rosaria Lauro — IXXO — position and weather

sailwx.info

Track history (hours):
 
Tides and Currents Weather Stations Pressure Air Temp Water Temp Dewpoint Dewpoint Depression Visibility Wind Speed Wind Dir Waves Ship Positions

Rosaria Lauro

Last reported at 2015-May-05 19:11 UTC. Time now 2015-May-06 01:24 UTC.
Position N 40°45' E 013°56'.

Length 40 m; draft 1.1 m.

Type: Passenger vessel. MMSI: 247055900.

Date/timePositionNaut miles runAvg speedWind from/ knotsBaromVisibWave heightAir tempDewpointWater temp
2015-May-05 19:11N 40°45' E 013°56'9 5.4
2015-May-05 17:33N 40°47' E 014°08'1 1.0
2015-May-05 16:34N 40°46' E 014°06'8 7.3
2015-May-05 15:24N 40°50' E 014°16'1619.1
2015-May-05 14:33N 40°45' E 013°56'1510.5
2015-May-05 13:06N 40°50' E 014°15'2 4.6
2015-May-05 12:33N 40°48' E 014°13'1313.4
2015-May-05 11:33N 40°45' E 013°56'1413.3
2015-May-05 10:31N 40°50' E 014°13'2 1.2
2015-May-05 08:33N 40°48' E 014°12'1212.4
2015-May-05 07:34N 40°45' E 013°56'3 0.2
2015-May-04 16:34N 40°46' E 013°53'1813.1
2015-May-04 15:11N 40°50' E 014°16'1219.0
2015-May-04 14:34N 40°46' E 014°01'4 3.9
2015-May-04 13:33N 40°45' E 013°56'15 5.1
2015-May-04 10:33N 40°49' E 014°16'1515.0
2015-May-04 09:33N 40°45' E 013°57'0 0.5
2015-May-04 08:33N 40°45' E 013°56'1613.0
2015-May-04 07:20N 40°50' E 014°16'9 5.2
2015-May-04 05:34N 40°46' E 014°05'1010.0
2015-May-04 04:32N 40°44' E 013°52'4 3.8
2015-May-04 03:33N 40°45' E 013°56'0 0.0
2015-May-03 19:23N 40°45' E 013°56'1619.3
2015-May-03 18:33N 40°49' E 014°17'8 8.2
2015-May-03 17:34N 40°46' E 014°06'3 3.3
2015-May-03 16:34N 40°46' E 014°02'1211.6
2015-May-03 15:33N 40°49' E 014°17'1616.5
2015-May-03 14:33N 40°45' E 013°56'1615.3
2015-May-03 13:32N 40°50' E 014°16'6 5.7
2015-May-03 12:33N 40°47' E 014°10'1010.3
2015-May-03 11:33N 40°45' E 013°56'1413.6
2015-May-03 10:33N 40°50' E 014°13'2 0.7
2015-May-03 07:27N 40°50' E 014°16'1617.7
2015-May-03 06:33N 40°45' E 013°56'4 0.3
2015-May-02 16:33N 40°46' E 013°52'8 4.1
2015-May-02 14:33N 40°46' E 014°02'5 4.7
2015-May-02 13:33N 40°45' E 013°56'1611.6
2015-May-02 12:08N 40°49' E 014°17'1423.5
2015-May-02 11:34N 40°46' E 013°60'6 6.2
2015-May-02 10:33N 40°44' E 013°52'8 7.8
2015-May-02 09:34N 40°46' E 014°01'9 6.3
2015-May-02 08:11N 40°47' E 014°13'1320.5
2015-May-02 07:33N 40°45' E 013°56'3 2.8
2015-May-02 06:33N 40°46' E 013°53'3 0.3
2015-May-01 19:09N 40°45' E 013°56'1423.5
2015-May-01 18:32N 40°48' E 014°15'5 5.4
2015-May-01 17:33N 40°47' E 014°08'1 1.0
2015-May-01 16:33N 40°46' E 014°07'8 6.6
2015-May-01 15:18N 40°49' E 014°17'1621.7
2015-May-01 14:33N 40°45' E 013°56'0 0.1
2015-May-01 13:33N 40°45' E 013°56'10 4.9
2015-May-01 11:34N 40°47' E 014°09'1413.5
2015-May-01 10:33N 40°44' E 013°52'8 8.4
2015-May-01 09:34N 40°46' E 014°02'11 7.9
2015-May-01 08:12N 40°49' E 014°16'1523.9
2015-May-01 07:33N 40°45' E 013°56'4 3.6
2015-May-01 06:33N 40°45' E 013°52'4 0.3
2015-Apr-30 19:19N 40°45' E 013°56'8 4.3
2015-Apr-30 17:33N 40°46' E 014°06'8 7.7
2015-Apr-30 16:33N 40°45' E 013°56'15 3.8
2015-Apr-30 12:30N 40°50' E 014°15'1516.4
2015-Apr-30 11:33N 40°45' E 013°56'1412.5
2015-Apr-30 10:25N 40°49' E 014°14'0 0.0
2015-Apr-30 06:24N 40°49' E 014°14'6 7.4
2015-Apr-30 05:34N 40°46' E 014°07'1211.6
2015-Apr-30 04:33N 40°44' E 013°52'4 0.4
2015-Apr-29 19:13N 40°45' E 013°56'1522.1
2015-Apr-29 18:31N 40°49' E 014°16'7 7.5
2015-Apr-29 17:33N 40°47' E 014°07'1 0.5
2015-Apr-29 16:33N 40°47' E 014°07'8 7.2
2015-Apr-29 15:26N 40°50' E 014°16'1618.0
2015-Apr-29 14:33N 40°45' E 013°56'13 6.3
2015-Apr-29 12:33N 40°48' E 014°12'1312.6
2015-Apr-29 11:33N 40°45' E 013°56'1412.8
2015-Apr-29 10:28N 40°50' E 014°14'0 0.3
2015-Apr-29 09:05N 40°49' E 014°14'2 0.1
2015-Apr-28 11:28N 40°51' E 014°16'0 0.0
2015-Apr-28 10:06N 40°51' E 014°16'0 0.0
2015-Apr-28 09:18N 40°51' E 014°16'0 0.0
2015-Apr-28 08:11N 40°51' E 014°16'  
Track history (hours):
 
Tides and Currents Weather Stations Pressure Air Temp Water Temp Dewpoint Dewpoint Depression Visibility Wind Speed Wind Dir Waves Ship Positions

Rosaria Lauro

Last reported at 2015-May-05 19:11 UTC. Time now 2015-May-06 01:24 UTC.
Position N 40°45' E 013°56'.

Length 40 m; draft 1.1 m.

Type: Passenger vessel. MMSI: 247055900.

Date/timePositionNaut miles runAvg speedWind from/ knotsBaromVisibWave heightAir tempDewpointWater temp
2015-May-05 19:11N 40°45' E 013°56'9 5.4
2015-May-05 17:33N 40°47' E 014°08'1 1.0
2015-May-05 16:34N 40°46' E 014°06'8 7.3
2015-May-05 15:24N 40°50' E 014°16'1619.1
2015-May-05 14:33N 40°45' E 013°56'1510.5
2015-May-05 13:06N 40°50' E 014°15'2 4.6
2015-May-05 12:33N 40°48' E 014°13'1313.4
2015-May-05 11:33N 40°45' E 013°56'1413.3
2015-May-05 10:31N 40°50' E 014°13'2 1.2
2015-May-05 08:33N 40°48' E 014°12'1212.4
2015-May-05 07:34N 40°45' E 013°56'3 0.2
2015-May-04 16:34N 40°46' E 013°53'1813.1
2015-May-04 15:11N 40°50' E 014°16'1219.0
2015-May-04 14:34N 40°46' E 014°01'4 3.9
2015-May-04 13:33N 40°45' E 013°56'15 5.1
2015-May-04 10:33N 40°49' E 014°16'1515.0
2015-May-04 09:33N 40°45' E 013°57'0 0.5
2015-May-04 08:33N 40°45' E 013°56'1613.0
2015-May-04 07:20N 40°50' E 014°16'9 5.2
2015-May-04 05:34N 40°46' E 014°05'1010.0
2015-May-04 04:32N 40°44' E 013°52'4 3.8
2015-May-04 03:33N 40°45' E 013°56'0 0.0
2015-May-03 19:23N 40°45' E 013°56'1619.3
2015-May-03 18:33N 40°49' E 014°17'8 8.2
2015-May-03 17:34N 40°46' E 014°06'3 3.3
2015-May-03 16:34N 40°46' E 014°02'1211.6
2015-May-03 15:33N 40°49' E 014°17'1616.5
2015-May-03 14:33N 40°45' E 013°56'1615.3
2015-May-03 13:32N 40°50' E 014°16'6 5.7
2015-May-03 12:33N 40°47' E 014°10'1010.3
2015-May-03 11:33N 40°45' E 013°56'1413.6
2015-May-03 10:33N 40°50' E 014°13'2 0.7
2015-May-03 07:27N 40°50' E 014°16'1617.7
2015-May-03 06:33N 40°45' E 013°56'4 0.3
2015-May-02 16:33N 40°46' E 013°52'8 4.1
2015-May-02 14:33N 40°46' E 014°02'5 4.7
2015-May-02 13:33N 40°45' E 013°56'1611.6
2015-May-02 12:08N 40°49' E 014°17'1423.5
2015-May-02 11:34N 40°46' E 013°60'6 6.2
2015-May-02 10:33N 40°44' E 013°52'8 7.8
2015-May-02 09:34N 40°46' E 014°01'9 6.3
2015-May-02 08:11N 40°47' E 014°13'1320.5
2015-May-02 07:33N 40°45' E 013°56'3 2.8
2015-May-02 06:33N 40°46' E 013°53'3 0.3
2015-May-01 19:09N 40°45' E 013°56'1423.5
2015-May-01 18:32N 40°48' E 014°15'5 5.4
2015-May-01 17:33N 40°47' E 014°08'1 1.0
2015-May-01 16:33N 40°46' E 014°07'8 6.6
2015-May-01 15:18N 40°49' E 014°17'1621.7
2015-May-01 14:33N 40°45' E 013°56'0 0.1
2015-May-01 13:33N 40°45' E 013°56'10 4.9
2015-May-01 11:34N 40°47' E 014°09'1413.5
2015-May-01 10:33N 40°44' E 013°52'8 8.4
2015-May-01 09:34N 40°46' E 014°02'11 7.9
2015-May-01 08:12N 40°49' E 014°16'1523.9
2015-May-01 07:33N 40°45' E 013°56'4 3.6
2015-May-01 06:33N 40°45' E 013°52'4 0.3
2015-Apr-30 19:19N 40°45' E 013°56'8 4.3
2015-Apr-30 17:33N 40°46' E 014°06'8 7.7
2015-Apr-30 16:33N 40°45' E 013°56'15 3.8
2015-Apr-30 12:30N 40°50' E 014°15'1516.4
2015-Apr-30 11:33N 40°45' E 013°56'1412.5
2015-Apr-30 10:25N 40°49' E 014°14'0 0.0
2015-Apr-30 06:24N 40°49' E 014°14'6 7.4
2015-Apr-30 05:34N 40°46' E 014°07'1211.6
2015-Apr-30 04:33N 40°44' E 013°52'4 0.4
2015-Apr-29 19:13N 40°45' E 013°56'1522.1
2015-Apr-29 18:31N 40°49' E 014°16'7 7.5
2015-Apr-29 17:33N 40°47' E 014°07'1 0.5
2015-Apr-29 16:33N 40°47' E 014°07'8 7.2
2015-Apr-29 15:26N 40°50' E 014°16'1618.0
2015-Apr-29 14:33N 40°45' E 013°56'13 6.3
2015-Apr-29 12:33N 40°48' E 014°12'1312.6
2015-Apr-29 11:33N 40°45' E 013°56'1412.8
2015-Apr-29 10:28N 40°50' E 014°14'0 0.3
2015-Apr-29 09:05N 40°49' E 014°14'2 0.1
2015-Apr-28 11:28N 40°51' E 014°16'0 0.0
2015-Apr-28 10:06N 40°51' E 014°16'0 0.0
2015-Apr-28 09:18N 40°51' E 014°16'0 0.0
2015-Apr-28 08:11N 40°51' E 014°16'  

Dump ship's entire track history